Alcala de Guadaira, Spain
Current Conditions -  °F | °C
As of 5:30 PM on Friday 19 Dec 2014 (Local Time) from LEZL Reporting Station
Clear Clear  
Wind Chill: 59°   Ceiling: Unl
Heat Index: 59°   Visibility: 6mi
Dew Point: 50°   Wind: 3mph
Humidity: 72%   Direction: 210°SSW
Pressure: 30.39"   Gusts: NA
Location:  37.34°N, 5.84°W
Report Text: LEZL 191630Z 21003KT CAVOK 15/10 Q1029 NOSIG
Loading
Personal Weather Stations






























Interactive Weather Map New forecast layout! Learn more

10-Day Weather Forecast

Advertisements
Track Severe Weather on mobile